createdAt,value
2018-06-04T00:00:23.660Z,12.75
2018-06-04T00:01:23.595Z,12.72
2018-06-04T00:02:23.659Z,12.68
2018-06-04T00:03:23.591Z,12.66
2018-06-04T00:04:23.595Z,12.71
2018-06-04T00:05:23.592Z,12.69
2018-06-04T00:06:23.595Z,12.66
2018-06-04T00:07:23.667Z,12.62
2018-06-04T00:08:23.615Z,12.64
2018-06-04T00:09:23.667Z,12.61
2018-06-04T00:10:23.599Z,12.57
2018-06-04T00:11:23.595Z,12.57
2018-06-04T00:12:23.685Z,12.57
2018-06-04T00:13:23.597Z,12.54
2018-06-04T00:14:23.673Z,12.50
2018-06-04T00:15:23.610Z,12.47
2018-06-04T00:16:23.670Z,12.48
2018-06-04T00:17:23.589Z,12.50
2018-06-04T00:18:23.572Z,12.48
2018-06-04T00:19:23.634Z,12.47
2018-06-04T00:20:23.572Z,12.47
2018-06-04T00:21:23.710Z,12.46
2018-06-04T00:22:23.699Z,12.43
2018-06-04T00:23:23.675Z,12.44
2018-06-04T00:24:23.707Z,12.42
2018-06-04T00:25:23.678Z,12.42
2018-06-04T00:26:23.710Z,12.43
2018-06-04T00:27:23.659Z,12.43
2018-06-04T00:28:23.570Z,12.44
2018-06-04T00:29:23.609Z,12.46
2018-06-04T00:30:23.550Z,12.44
2018-06-04T00:31:23.665Z,12.48
2018-06-04T00:32:23.647Z,12.47
2018-06-04T00:33:23.585Z,12.48
2018-06-04T00:34:23.578Z,12.46
2018-06-04T00:35:23.670Z,12.48
2018-06-04T00:36:23.585Z,12.48
2018-06-04T00:37:23.722Z,12.50
2018-06-04T00:38:23.682Z,12.50
2018-06-04T00:39:23.647Z,12.50
2018-06-04T00:40:23.695Z,12.50
2018-06-04T00:41:23.710Z,12.51
2018-06-04T00:42:23.727Z,12.58
2018-06-04T00:43:23.658Z,12.61
2018-06-04T00:44:23.709Z,12.57
2018-06-04T00:45:23.711Z,12.54
2018-06-04T00:46:23.603Z,12.54
2018-06-04T00:47:23.691Z,12.55
2018-06-04T00:48:23.693Z,12.60
2018-06-04T00:49:23.691Z,12.65
2018-06-04T00:50:23.621Z,12.69
2018-06-04T00:51:23.727Z,12.71
2018-06-04T00:52:23.639Z,12.72
2018-06-04T00:53:23.625Z,12.75
2018-06-04T00:54:23.626Z,12.77
2018-06-04T00:55:23.624Z,12.80
2018-06-04T00:56:23.635Z,12.83
2018-06-04T00:57:23.723Z,12.87
2018-06-04T00:58:23.727Z,12.89
2018-06-04T00:59:23.714Z,12.91
2018-06-04T01:00:23.717Z,12.94
2018-06-04T01:01:23.669Z,12.92
2018-06-04T01:02:23.635Z,12.94
2018-06-04T01:03:23.733Z,12.98
2018-06-04T01:04:23.665Z,12.99
2018-06-04T01:05:23.603Z,13.03
2018-06-04T01:06:23.735Z,13.06
2018-06-04T01:07:23.668Z,13.09
2018-06-04T01:08:23.708Z,13.09
2018-06-04T01:09:23.641Z,13.13
2018-06-04T01:10:23.680Z,13.14
2018-06-04T01:11:23.700Z,13.17
2018-06-04T01:12:23.728Z,13.17
2018-06-04T01:13:23.732Z,13.21
2018-06-04T01:14:23.668Z,13.24
2018-06-04T01:15:23.613Z,13.25
2018-06-04T01:16:23.687Z,13.29
2018-06-04T01:17:23.713Z,13.31
2018-06-04T01:18:23.643Z,13.35
2018-06-04T01:19:23.715Z,13.36
2018-06-04T01:20:23.657Z,13.39
2018-06-04T01:21:23.713Z,13.43
2018-06-04T01:22:23.642Z,13.46
2018-06-04T01:23:23.718Z,13.47
2018-06-04T01:24:23.646Z,13.50
2018-06-04T01:25:23.719Z,13.50
2018-06-04T01:26:23.610Z,13.53
2018-06-04T01:27:23.636Z,13.57
2018-06-04T01:28:23.721Z,13.61
2018-06-04T01:29:23.622Z,13.64
2018-06-04T01:30:23.715Z,13.68
2018-06-04T01:31:23.689Z,13.72
2018-06-04T01:32:23.728Z,13.73
2018-06-04T01:33:23.694Z,13.76
2018-06-04T01:34:23.754Z,13.77
2018-06-04T01:35:23.726Z,13.77
2018-06-04T01:36:23.748Z,13.77
2018-06-04T01:37:23.651Z,13.76
2018-06-04T01:38:23.717Z,13.75
2018-06-04T01:39:23.718Z,13.77
2018-06-04T01:40:23.645Z,13.75
2018-06-04T01:41:23.719Z,13.77
2018-06-04T01:42:23.721Z,13.77
2018-06-04T01:43:23.650Z,13.80
2018-06-04T01:44:23.720Z,13.81
2018-06-04T01:45:23.651Z,13.83
2018-06-04T01:46:23.664Z,13.83
2018-06-04T01:47:23.715Z,13.84
2018-06-04T01:48:23.600Z,13.84
2018-06-04T01:49:23.599Z,13.86
2018-06-04T01:50:23.717Z,13.89
2018-06-04T01:51:23.710Z,13.89
2018-06-04T01:52:23.668Z,13.91
2018-06-04T01:53:23.726Z,13.92
2018-06-04T01:54:23.669Z,13.93
2018-06-04T01:55:23.640Z,13.95
2018-06-04T01:56:23.675Z,13.96
2018-06-04T01:57:23.751Z,13.98
2018-06-04T01:58:23.747Z,13.99
2018-06-04T01:59:23.717Z,14.00
2018-06-04T02:00:23.747Z,14.00
2018-06-04T02:01:23.677Z,14.02
2018-06-04T02:02:23.713Z,14.04
2018-06-04T02:03:23.660Z,14.06
2018-06-04T02:04:23.666Z,14.09
2018-06-04T02:05:23.801Z,14.10
2018-06-04T02:06:23.805Z,14.13
2018-06-04T02:07:23.740Z,14.13
2018-06-04T02:08:23.720Z,14.14
2018-06-04T02:09:23.774Z,14.17
2018-06-04T02:10:23.667Z,14.20
2018-06-04T02:11:23.766Z,14.21
2018-06-04T02:12:23.662Z,14.21
2018-06-04T02:13:23.721Z,14.21
2018-06-04T02:14:23.790Z,14.21
2018-06-04T02:15:23.684Z,14.21
2018-06-04T02:16:23.719Z,14.22
2018-06-04T02:17:23.650Z,14.24
2018-06-04T02:18:23.645Z,14.27
2018-06-04T02:19:23.651Z,14.28
2018-06-04T02:20:23.653Z,14.28
2018-06-04T02:21:23.681Z,14.29
2018-06-04T02:22:23.742Z,14.28
2018-06-04T02:23:23.729Z,14.28
2018-06-04T02:24:23.715Z,14.27
2018-06-04T02:25:23.736Z,14.27
2018-06-04T02:26:23.687Z,14.25
2018-06-04T02:27:31.987Z,14.27
2018-06-04T02:28:23.628Z,14.27
2018-06-04T02:29:23.649Z,14.28
2018-06-04T02:30:23.735Z,14.28
2018-06-04T02:31:23.737Z,14.27
2018-06-04T02:32:23.689Z,14.25
2018-06-04T02:33:23.634Z,14.24
2018-06-04T02:34:23.753Z,14.25
2018-06-04T02:35:23.624Z,14.25
2018-06-04T02:36:23.752Z,14.27
2018-06-04T02:37:23.690Z,14.27
2018-06-04T02:38:23.758Z,14.25
2018-06-04T02:39:23.691Z,14.27
2018-06-04T02:40:23.762Z,14.27
2018-06-04T02:41:23.696Z,14.27
2018-06-04T02:42:23.762Z,14.27
2018-06-04T02:43:23.761Z,14.29
2018-06-04T02:44:23.699Z,14.31
2018-06-04T02:45:23.762Z,14.31
2018-06-04T02:46:23.693Z,14.32
2018-06-04T02:47:23.773Z,14.35
2018-06-04T02:48:23.908Z,14.35
2018-06-04T02:49:23.695Z,14.33
2018-06-04T02:50:23.742Z,14.32
2018-06-04T02:51:23.754Z,14.29
2018-06-04T02:52:23.803Z,14.28
2018-06-04T02:53:23.771Z,14.28
2018-06-04T02:54:23.715Z,14.29
2018-06-04T02:55:23.808Z,14.28
2018-06-04T02:56:23.791Z,14.29
2018-06-04T02:57:23.735Z,14.31
2018-06-04T02:58:23.757Z,14.29
2018-06-04T02:59:23.755Z,14.31
2018-06-04T03:00:23.799Z,14.32
2018-06-04T03:01:23.786Z,14.33
2018-06-04T03:02:23.795Z,14.33
2018-06-04T03:03:23.702Z,14.33
2018-06-04T03:04:23.803Z,14.32
2018-06-04T03:05:23.720Z,14.29
2018-06-04T03:06:23.790Z,14.31
2018-06-04T03:07:23.706Z,14.33
2018-06-04T03:08:23.776Z,14.33
2018-06-04T03:09:23.707Z,14.33
2018-06-04T03:10:23.718Z,14.33
2018-06-04T03:11:23.781Z,14.32
2018-06-04T03:12:23.719Z,14.32
2018-06-04T03:13:23.782Z,14.33
2018-06-04T03:14:23.713Z,14.35
2018-06-04T03:15:23.781Z,14.33
2018-06-04T03:16:23.711Z,14.31
2018-06-04T03:17:23.754Z,14.32
2018-06-04T03:18:23.847Z,14.32
2018-06-04T03:19:23.772Z,14.32
2018-06-04T03:20:23.830Z,14.32
2018-06-04T03:21:23.814Z,14.32
2018-06-04T03:22:23.837Z,14.33
2018-06-04T03:23:23.711Z,14.35
2018-06-04T03:24:23.762Z,14.35
2018-06-04T03:25:23.829Z,14.36
2018-06-04T03:26:23.732Z,14.36
2018-06-04T03:27:23.727Z,14.35
2018-06-04T03:28:23.681Z,14.36
2018-06-04T03:29:23.727Z,14.35
2018-06-04T03:30:23.802Z,14.35
2018-06-04T03:31:23.731Z,14.33
2018-06-04T03:32:23.693Z,14.33
2018-06-04T03:33:23.815Z,14.32
2018-06-04T03:34:23.734Z,14.33
2018-06-04T03:35:23.801Z,14.33
2018-06-04T03:36:23.736Z,14.33
2018-06-04T03:37:23.836Z,14.35
2018-06-04T03:38:23.744Z,14.35
2018-06-04T03:39:23.723Z,14.38
2018-06-04T03:40:23.777Z,14.38
2018-06-04T03:41:23.722Z,14.38
2018-06-04T03:42:23.806Z,14.38
2018-06-04T03:43:23.778Z,14.36
2018-06-04T03:44:23.844Z,14.32
2018-06-04T03:45:23.802Z,14.32
2018-06-04T03:46:23.769Z,14.32
2018-06-04T03:47:23.744Z,14.28
2018-06-04T03:48:23.810Z,14.29
2018-06-04T03:49:23.777Z,14.31
2018-06-04T03:50:23.745Z,14.33
2018-06-04T03:51:23.807Z,14.33
2018-06-04T03:52:23.774Z,14.32
2018-06-04T03:53:23.749Z,14.32
2018-06-04T03:54:23.819Z,14.32
2018-06-04T03:55:23.744Z,14.33
2018-06-04T03:56:23.754Z,14.35
2018-06-04T03:57:23.740Z,14.35
2018-06-04T03:58:23.817Z,14.38
2018-06-04T03:59:23.793Z,14.39
2018-06-04T04:00:23.851Z,14.39
2018-06-04T04:01:23.874Z,14.40
2018-06-04T04:02:23.818Z,14.40
2018-06-04T04:03:23.784Z,14.40
2018-06-04T04:04:23.793Z,14.43
2018-06-04T04:05:23.822Z,14.46
2018-06-04T04:06:23.880Z,14.46
2018-06-04T04:07:23.735Z,14.47
2018-06-04T04:08:23.787Z,14.49
2018-06-04T04:09:23.849Z,14.46
2018-06-04T04:10:23.821Z,14.47
2018-06-04T04:11:23.850Z,14.47
2018-06-04T04:12:23.842Z,14.47
2018-06-04T04:13:23.788Z,14.50
2018-06-04T04:14:23.727Z,14.50
2018-06-04T04:15:23.744Z,14.51
2018-06-04T04:16:23.823Z,14.47
2018-06-04T04:17:23.733Z,14.47
2018-06-04T04:18:23.730Z,14.49
2018-06-04T04:19:23.836Z,14.49
2018-06-04T04:20:23.747Z,14.49
2018-06-04T04:21:23.758Z,14.49
2018-06-04T04:22:24.017Z,14.50
2018-06-04T04:23:23.776Z,14.49
2018-06-04T04:24:23.825Z,14.49
2018-06-04T04:25:23.817Z,14.49
2018-06-04T04:26:23.749Z,14.50
2018-06-04T04:27:23.853Z,14.51
2018-06-04T04:28:23.877Z,14.53
2018-06-04T04:29:23.797Z,14.54
2018-06-04T04:30:23.856Z,14.55
2018-06-04T04:31:23.740Z,14.55
2018-06-04T04:32:23.865Z,14.51
2018-06-04T04:33:23.834Z,14.50
2018-06-04T04:34:23.798Z,14.49
2018-06-04T04:35:23.869Z,14.46
2018-06-04T04:36:23.867Z,14.46
2018-06-04T04:37:23.778Z,14.47
2018-06-04T04:38:23.863Z,14.50
2018-06-04T04:39:23.822Z,14.54
2018-06-04T04:40:23.759Z,14.55
2018-06-04T04:41:23.749Z,14.55
2018-06-04T04:42:23.795Z,14.57
2018-06-04T04:43:23.809Z,14.58
2018-06-04T04:44:23.846Z,14.58
2018-06-04T04:45:23.815Z,14.61
2018-06-04T04:46:23.879Z,14.65
2018-06-04T04:47:23.841Z,14.61
2018-06-04T04:48:23.832Z,14.61
2018-06-04T04:49:23.808Z,14.61
2018-06-04T04:50:23.849Z,14.61
2018-06-04T04:51:23.742Z,14.64
2018-06-04T04:52:23.808Z,14.68
2018-06-04T04:53:23.781Z,14.65
2018-06-04T04:54:23.829Z,14.65
2018-06-04T04:55:23.728Z,14.65
2018-06-04T04:56:23.751Z,14.69
2018-06-04T04:57:23.861Z,14.65
2018-06-04T04:58:23.776Z,14.66
2018-06-04T04:59:23.823Z,14.68
2018-06-04T05:00:23.890Z,14.71
2018-06-04T05:01:23.884Z,14.73
2018-06-04T05:02:23.818Z,14.75
2018-06-04T05:03:23.859Z,14.78
2018-06-04T05:04:23.787Z,14.80
2018-06-04T05:05:23.895Z,14.83
2018-06-04T05:06:23.899Z,14.84
2018-06-04T05:07:23.836Z,14.84
2018-06-04T05:08:23.897Z,14.78
2018-06-04T05:09:23.880Z,14.72
2018-06-04T05:10:23.835Z,14.66
2018-06-04T05:11:23.786Z,14.66
2018-06-04T05:12:23.892Z,14.71
2018-06-04T05:13:23.837Z,14.73
2018-06-04T05:14:23.822Z,14.79
2018-06-04T05:15:23.807Z,14.84
2018-06-04T05:16:23.862Z,14.89
2018-06-04T05:17:23.807Z,14.86
2018-06-04T05:18:23.838Z,14.87
2018-06-04T05:19:23.868Z,14.87
2018-06-04T05:20:23.898Z,14.82
2018-06-04T05:21:23.889Z,14.73
2018-06-04T05:22:23.893Z,14.75
2018-06-04T05:23:23.835Z,14.78
2018-06-04T05:24:23.913Z,14.83
2018-06-04T05:25:23.772Z,14.87
2018-06-04T05:26:23.934Z,14.89
2018-06-04T05:27:23.837Z,14.92
2018-06-04T05:28:23.834Z,14.95
2018-06-04T05:29:23.809Z,14.96
2018-06-04T05:30:23.901Z,14.95
2018-06-04T05:31:23.848Z,14.96
2018-06-04T05:32:23.798Z,14.96
2018-06-04T05:33:23.874Z,14.95
2018-06-04T05:34:23.921Z,15.00
2018-06-04T05:35:23.818Z,15.00
2018-06-04T05:36:23.795Z,14.98
2018-06-04T05:37:23.783Z,14.84
2018-06-04T05:38:23.897Z,14.83
2018-06-04T05:39:23.911Z,14.86
2018-06-04T05:40:23.912Z,14.84
2018-06-04T05:41:23.786Z,14.87
2018-06-04T05:42:23.938Z,14.87
2018-06-04T05:43:23.920Z,14.84
2018-06-04T05:44:23.883Z,14.84
2018-06-04T05:45:23.805Z,14.89
2018-06-04T05:46:23.923Z,14.94
2018-06-04T05:47:23.890Z,14.98
2018-06-04T05:48:23.985Z,15.04
2018-06-04T05:49:23.889Z,15.04
2018-06-04T05:50:23.839Z,14.96
2018-06-04T05:51:23.821Z,15.03
2018-06-04T05:52:23.821Z,15.08
2018-06-04T05:53:23.889Z,15.15
2018-06-04T05:54:23.828Z,15.19
2018-06-04T05:55:23.827Z,15.26
2018-06-04T05:56:23.828Z,15.29
2018-06-04T05:57:23.820Z,15.15
2018-06-04T05:58:23.833Z,15.13
2018-06-04T05:59:23.851Z,15.08
2018-06-04T06:00:23.769Z,15.00
2018-06-04T06:01:23.851Z,15.06
2018-06-04T06:02:23.800Z,15.14
2018-06-04T06:03:23.891Z,15.22
2018-06-04T06:04:23.882Z,15.31
2018-06-04T06:05:23.894Z,15.42
2018-06-04T06:06:23.894Z,15.51
2018-06-04T06:07:23.821Z,15.58
2018-06-04T06:08:23.935Z,15.59
2018-06-04T06:09:23.807Z,15.59
2018-06-04T06:10:23.828Z,15.64
2018-06-04T06:11:23.907Z,15.58
2018-06-04T06:12:23.907Z,15.62
2018-06-04T06:13:23.803Z,15.66
2018-06-04T06:14:23.966Z,15.70
2018-06-04T06:15:23.872Z,15.64
2018-06-04T06:16:23.830Z,15.69
2018-06-04T06:17:23.933Z,15.77
2018-06-04T06:18:23.763Z,15.88
2018-06-04T06:19:23.810Z,15.94
2018-06-04T06:20:23.766Z,15.90
2018-06-04T06:21:23.765Z,15.87
2018-06-04T06:22:23.770Z,15.79
2018-06-04T06:23:23.816Z,15.82
2018-06-04T06:24:23.817Z,15.82
2018-06-04T06:25:23.833Z,15.80
2018-06-04T06:26:23.770Z,15.86
2018-06-04T06:27:23.816Z,15.94
2018-06-04T06:28:23.941Z,15.99
2018-06-04T06:29:23.942Z,16.05
2018-06-04T06:30:23.949Z,16.03
2018-06-04T06:31:23.820Z,16.06
2018-06-04T06:32:23.853Z,16.11
2018-06-04T06:33:23.915Z,16.16
2018-06-04T06:34:23.958Z,16.21
2018-06-04T06:35:23.915Z,16.21
2018-06-04T06:36:23.896Z,16.31
2018-06-04T06:37:23.957Z,16.33
2018-06-04T06:38:23.889Z,16.27
2018-06-04T06:39:23.965Z,16.31
2018-06-04T06:40:23.888Z,16.31
2018-06-04T06:41:23.960Z,16.39
2018-06-04T06:42:23.927Z,16.41
2018-06-04T06:43:23.951Z,16.36
2018-06-04T06:44:23.966Z,16.33
2018-06-04T06:45:23.957Z,16.31
2018-06-04T06:46:23.967Z,16.35
2018-06-04T06:47:23.847Z,16.39
2018-06-04T06:48:23.961Z,16.47
2018-06-04T06:49:23.955Z,16.55
2018-06-04T06:50:23.850Z,16.61
2018-06-04T06:51:23.986Z,16.73
2018-06-04T06:52:23.927Z,16.85
2018-06-04T06:53:23.927Z,16.92
2018-06-04T06:54:23.989Z,17.03
2018-06-04T06:55:23.862Z,17.09
2018-06-04T06:56:23.930Z,17.21
2018-06-04T06:57:23.918Z,17.29
2018-06-04T06:58:23.902Z,17.29
2018-06-04T06:59:23.862Z,17.22
2018-06-04T07:00:23.942Z,17.21
2018-06-04T07:01:23.865Z,17.25
2018-06-04T07:02:23.934Z,17.32
2018-06-04T07:03:23.903Z,17.37
2018-06-04T07:04:23.858Z,17.32
2018-06-04T07:05:23.918Z,17.33
2018-06-04T07:06:23.876Z,17.43
2018-06-04T07:07:23.956Z,17.49
2018-06-04T07:08:23.941Z,17.55
2018-06-04T07:09:23.904Z,17.62
2018-06-04T07:10:23.841Z,17.65
2018-06-04T07:11:23.862Z,17.72
2018-06-04T07:12:23.908Z,17.84
2018-06-04T07:13:23.961Z,17.91
2018-06-04T07:14:23.977Z,17.77
2018-06-04T07:15:23.902Z,17.79
2018-06-04T07:16:23.946Z,17.83
2018-06-04T07:17:23.968Z,17.84
2018-06-04T07:18:23.944Z,17.85
2018-06-04T07:19:23.870Z,17.98
2018-06-04T07:20:23.825Z,18.10
2018-06-04T07:21:23.983Z,18.06
2018-06-04T07:22:23.869Z,17.84
2018-06-04T07:23:23.872Z,17.87
2018-06-04T07:24:23.935Z,17.87
2018-06-04T07:25:23.820Z,17.84
2018-06-04T07:26:23.872Z,17.87
2018-06-04T07:27:23.860Z,17.94
2018-06-04T07:28:23.882Z,18.03
2018-06-04T07:29:23.957Z,18.13
2018-06-04T07:30:23.885Z,18.23
2018-06-04T07:31:23.957Z,18.34
2018-06-04T07:32:23.965Z,18.59
2018-06-04T07:33:23.993Z,18.84
2018-06-04T07:34:23.892Z,19.12
2018-06-04T07:35:23.889Z,19.27
2018-06-04T07:36:23.892Z,19.31
2018-06-04T07:37:23.961Z,19.49
2018-06-04T07:38:23.928Z,19.79
2018-06-04T07:39:24.000Z,19.98
2018-06-04T07:40:23.959Z,19.98
2018-06-04T07:41:24.095Z,20.02
2018-06-04T07:42:23.892Z,19.99
2018-06-04T07:43:23.998Z,19.81
2018-06-04T07:44:23.978Z,20.01
2018-06-04T07:45:23.939Z,20.30
2018-06-04T07:46:23.908Z,20.20
2018-06-04T07:47:23.931Z,20.28
2018-06-04T07:48:23.973Z,20.60
2018-06-04T07:49:23.966Z,20.61
2018-06-04T07:50:23.970Z,20.79
2018-06-04T07:51:24.009Z,20.95
2018-06-04T07:52:24.002Z,21.10
2018-06-04T07:53:23.911Z,21.32
2018-06-04T07:54:23.928Z,21.54
2018-06-04T07:55:23.940Z,21.80
2018-06-04T07:56:23.992Z,21.96
2018-06-04T07:57:23.926Z,22.23
2018-06-04T07:58:23.941Z,22.35
2018-06-04T07:59:23.991Z,22.38
2018-06-04T08:00:23.974Z,22.42
2018-06-04T08:01:24.000Z,22.39
2018-06-04T08:02:23.911Z,22.41
2018-06-04T08:03:23.995Z,22.45
2018-06-04T08:04:23.975Z,22.20
2018-06-04T08:05:23.881Z,22.24
2018-06-04T08:06:24.018Z,22.36
2018-06-04T08:07:23.958Z,22.42
2018-06-04T08:08:23.854Z,22.49
2018-06-04T08:09:23.973Z,22.60
2018-06-04T08:10:23.903Z,22.54
2018-06-04T08:11:23.922Z,22.59
2018-06-04T08:12:23.927Z,22.79
2018-06-04T08:13:23.979Z,22.84
2018-06-04T08:14:23.978Z,22.97
2018-06-04T08:15:23.926Z,22.98
2018-06-04T08:16:23.981Z,23.27
2018-06-04T08:17:23.905Z,23.45
2018-06-04T08:18:23.929Z,23.53
2018-06-04T08:19:23.891Z,23.61
2018-06-04T08:20:23.891Z,23.82
2018-06-04T08:21:24.007Z,23.63
2018-06-04T08:22:24.017Z,23.56
2018-06-04T08:23:23.932Z,23.31
2018-06-04T08:24:23.955Z,23.02
2018-06-04T08:25:24.013Z,23.04
2018-06-04T08:26:24.065Z,23.06
2018-06-04T08:27:23.989Z,23.28
2018-06-04T08:28:23.928Z,23.51
2018-06-04T08:29:23.968Z,23.82
2018-06-04T08:30:23.932Z,24.14
2018-06-04T08:31:23.866Z,24.12
2018-06-04T08:32:23.948Z,24.25
2018-06-04T08:33:23.895Z,24.40
2018-06-04T08:34:23.954Z,24.57
2018-06-04T08:35:23.892Z,24.72
2018-06-04T08:36:23.955Z,24.85
2018-06-04T08:37:23.931Z,24.94
2018-06-04T08:38:24.027Z,25.12
2018-06-04T08:39:24.032Z,25.17
2018-06-04T08:40:24.057Z,25.01
2018-06-04T08:41:23.919Z,25.19
2018-06-04T08:42:23.969Z,25.24
2018-06-04T08:43:23.922Z,25.34
2018-06-04T08:44:24.059Z,25.42
2018-06-04T08:45:23.943Z,25.31
2018-06-04T08:46:23.915Z,25.15
2018-06-04T08:47:23.984Z,25.11
2018-06-04T08:48:23.911Z,24.98
2018-06-04T08:49:23.931Z,25.00
2018-06-04T08:50:23.887Z,24.95
2018-06-04T08:51:23.918Z,24.83
2018-06-04T08:52:23.948Z,24.90
2018-06-04T08:53:23.951Z,24.94
2018-06-04T08:54:23.996Z,24.97
2018-06-04T08:55:23.957Z,25.04
2018-06-04T08:56:24.032Z,25.05
2018-06-04T08:57:23.919Z,25.02
2018-06-04T08:58:23.930Z,24.83
2018-06-04T08:59:23.936Z,24.97
2018-06-04T09:00:23.887Z,25.12
2018-06-04T09:01:23.891Z,25.26
2018-06-04T09:02:24.011Z,25.37
2018-06-04T09:03:23.957Z,25.51
2018-06-04T09:04:24.002Z,25.40
2018-06-04T09:05:23.890Z,25.34
2018-06-04T09:06:24.004Z,25.00
2018-06-04T09:07:24.005Z,24.79
2018-06-04T09:08:23.955Z,24.74
2018-06-04T09:09:23.936Z,24.98
2018-06-04T09:10:23.991Z,24.97
2018-06-04T09:11:23.947Z,25.05
2018-06-04T09:12:24.022Z,25.35
2018-06-04T09:13:24.034Z,25.44
2018-06-04T09:14:24.021Z,25.56
2018-06-04T09:15:23.999Z,25.62
2018-06-04T09:16:24.057Z,25.53
2018-06-04T09:17:23.999Z,25.55
2018-06-04T09:18:23.991Z,25.66
2018-06-04T09:19:24.061Z,25.59
2018-06-04T09:20:24.042Z,25.81
2018-06-04T09:21:24.047Z,26.08
2018-06-04T09:22:24.031Z,26.17
2018-06-04T09:23:24.060Z,26.22
2018-06-04T09:24:23.991Z,26.24
2018-06-04T09:25:24.057Z,26.30
2018-06-04T09:26:23.935Z,26.26
2018-06-04T09:27:24.063Z,26.13
2018-06-04T09:28:23.996Z,25.96
2018-06-04T09:29:23.999Z,26.08
2018-06-04T09:30:23.996Z,25.96
2018-06-04T09:31:23.996Z,26.26
2018-06-04T09:32:24.046Z,26.48
2018-06-04T09:33:24.005Z,26.74
2018-06-04T09:34:24.012Z,26.97
2018-06-04T09:35:24.064Z,26.93
2018-06-04T09:36:24.020Z,26.71
2018-06-04T09:37:24.037Z,26.38
2018-06-04T09:38:24.065Z,26.71
2018-06-04T09:39:24.003Z,26.96
2018-06-04T09:40:24.001Z,26.85
2018-06-04T09:41:24.017Z,26.74
2018-06-04T09:42:24.018Z,26.44
2018-06-04T09:43:24.079Z,26.34
2018-06-04T09:44:24.005Z,26.34
2018-06-04T09:45:24.016Z,26.06
2018-06-04T09:46:24.085Z,26.43
2018-06-04T09:47:24.071Z,26.67
2018-06-04T09:48:24.016Z,26.71
2018-06-04T09:49:24.011Z,26.90
2018-06-04T09:50:24.007Z,27.18
2018-06-04T09:51:24.069Z,27.32
2018-06-04T09:52:24.083Z,27.22
2018-06-04T09:54:24.021Z,27.44
2018-06-04T09:55:24.084Z,27.70
2018-06-04T09:56:24.010Z,27.93
2018-06-04T09:57:24.016Z,27.37
2018-06-04T09:58:23.984Z,27.21
2018-06-04T09:59:24.050Z,27.39
2018-06-04T10:00:24.083Z,27.65
2018-06-04T10:01:23.987Z,27.91
2018-06-04T10:02:24.054Z,28.07
2018-06-04T10:03:24.013Z,28.24
2018-06-04T10:04:24.053Z,28.37
2018-06-04T10:05:24.058Z,28.39
2018-06-04T10:06:24.055Z,27.91
2018-06-04T10:07:23.989Z,27.23
2018-06-04T10:08:24.145Z,27.52
2018-06-04T10:09:24.026Z,27.85
2018-06-04T10:10:24.058Z,27.54
2018-06-04T10:11:23.968Z,27.65
2018-06-04T10:12:24.087Z,27.95
2018-06-04T10:13:23.984Z,28.13
2018-06-04T10:14:24.028Z,28.07
2018-06-04T10:15:24.049Z,28.35
2018-06-04T10:16:24.030Z,28.37
2018-06-04T10:17:24.092Z,27.96
2018-06-04T10:18:23.969Z,27.96
2018-06-04T10:19:24.101Z,28.24
2018-06-04T10:20:23.971Z,27.95
2018-06-04T10:21:24.007Z,28.00
2018-06-04T10:22:24.046Z,28.13
2018-06-04T10:23:24.037Z,28.07
2018-06-04T10:24:24.093Z,28.07
2018-06-04T10:25:24.106Z,28.25
2018-06-04T10:26:24.029Z,28.42
2018-06-04T10:27:24.031Z,28.53
2018-06-04T10:28:24.068Z,28.25
2018-06-04T10:29:24.071Z,27.74
2018-06-04T10:30:24.006Z,27.93
2018-06-04T10:31:24.072Z,27.99
2018-06-04T10:32:24.008Z,27.95
2018-06-04T10:33:24.157Z,27.80
2018-06-04T10:34:23.956Z,27.75
2018-06-04T10:35:24.036Z,27.93
2018-06-04T10:36:24.009Z,27.86
2018-06-04T10:37:24.076Z,27.51
2018-06-04T10:38:24.074Z,27.61
2018-06-04T10:39:24.009Z,27.93
2018-06-04T10:40:24.084Z,28.22
2018-06-04T10:41:24.011Z,28.37
2018-06-04T10:42:24.079Z,28.37
2018-06-04T10:43:24.015Z,28.44
2018-06-04T10:44:24.080Z,28.22
2018-06-04T10:45:24.010Z,27.95
2018-06-04T10:46:24.083Z,27.58
2018-06-04T10:47:24.082Z,27.14
2018-06-04T10:48:24.092Z,26.66
2018-06-04T10:49:24.016Z,26.79
2018-06-04T10:50:24.117Z,27.06
2018-06-04T10:51:24.086Z,26.92
2018-06-04T10:52:24.087Z,26.92
2018-06-04T10:53:24.134Z,26.79
2018-06-04T10:54:24.088Z,26.75
2018-06-04T10:55:24.092Z,26.86
2018-06-04T10:56:24.090Z,26.60
2018-06-04T10:57:24.031Z,26.60
2018-06-04T10:58:23.994Z,26.49
2018-06-04T10:59:24.024Z,26.45
2018-06-04T11:00:24.084Z,26.64
2018-06-04T11:01:24.043Z,26.81
2018-06-04T11:02:23.977Z,26.79
2018-06-04T11:03:24.048Z,26.89
2018-06-04T11:04:24.051Z,27.19
2018-06-04T11:05:23.970Z,27.28
2018-06-04T11:06:24.035Z,27.47
2018-06-04T11:07:23.972Z,27.58
2018-06-04T11:08:23.996Z,27.57
2018-06-04T11:09:24.077Z,27.86
2018-06-04T11:10:24.131Z,27.73
2018-06-04T11:11:24.130Z,27.39
2018-06-04T11:12:24.079Z,27.57
2018-06-04T11:13:24.132Z,27.66
2018-06-04T11:14:24.130Z,27.71
2018-06-04T11:15:24.134Z,27.77
2018-06-04T11:16:24.133Z,27.88
2018-06-04T11:17:24.026Z,27.98
2018-06-04T11:18:24.032Z,27.91
2018-06-04T11:19:24.057Z,27.77
2018-06-04T11:20:24.014Z,27.68
2018-06-04T11:21:24.069Z,27.22
2018-06-04T11:22:23.972Z,27.08
2018-06-04T11:23:23.973Z,27.18
2018-06-04T11:24:24.054Z,27.10
2018-06-04T11:25:24.060Z,27.01
2018-06-04T11:26:24.065Z,27.17
2018-06-04T11:27:23.996Z,27.15
2018-06-04T11:28:24.042Z,26.86
2018-06-04T11:29:24.115Z,26.44
2018-06-04T11:30:24.106Z,26.43
2018-06-04T11:31:24.050Z,26.29
2018-06-04T11:32:24.112Z,26.51
2018-06-04T11:33:24.152Z,26.88
2018-06-04T11:34:24.111Z,27.11
2018-06-04T11:35:24.180Z,27.17
2018-06-04T11:36:24.115Z,27.14
2018-06-04T11:37:24.053Z,26.99
2018-06-04T11:38:24.053Z,27.11
2018-06-04T11:39:24.120Z,27.32
2018-06-04T11:40:24.055Z,27.37
2018-06-04T11:41:24.114Z,27.46
2018-06-04T11:42:24.118Z,27.70
2018-06-04T11:43:24.055Z,27.85
2018-06-04T11:44:24.122Z,27.61
2018-06-04T11:45:24.112Z,27.46
2018-06-04T11:46:24.075Z,27.32
2018-06-04T11:47:24.117Z,27.29
2018-06-04T11:48:24.119Z,27.03
2018-06-04T11:49:24.099Z,26.96
2018-06-04T11:50:24.063Z,27.03
2018-06-04T11:51:24.108Z,27.30
2018-06-04T11:52:24.102Z,27.33
2018-06-04T11:53:24.164Z,27.25
2018-06-04T11:54:24.131Z,27.08
2018-06-04T11:55:24.085Z,27.28
2018-06-04T11:56:24.072Z,27.28
2018-06-04T11:57:24.150Z,27.37
2018-06-04T11:58:24.153Z,27.41
2018-06-04T11:59:24.163Z,27.25
2018-06-04T12:00:24.105Z,27.26
2018-06-04T12:01:24.153Z,27.25
2018-06-04T12:02:24.104Z,27.11
2018-06-04T12:03:24.053Z,26.88
2018-06-04T12:04:24.118Z,26.71
2018-06-04T12:05:24.081Z,26.81
2018-06-04T12:06:24.093Z,26.96
2018-06-04T12:07:24.034Z,26.89
2018-06-04T12:08:24.059Z,26.78
2018-06-04T12:09:24.105Z,26.88
2018-06-04T12:10:24.101Z,27.11
2018-06-04T12:11:24.169Z,27.33
2018-06-04T12:12:24.115Z,27.54
2018-06-04T12:13:24.184Z,27.84
2018-06-04T12:14:24.117Z,28.00
2018-06-04T12:15:24.042Z,27.99
2018-06-04T12:16:24.052Z,28.03
2018-06-04T12:17:24.070Z,28.03
2018-06-04T12:18:24.263Z,27.68
2018-06-04T12:19:24.080Z,27.61
2018-06-04T12:20:24.108Z,27.33
2018-06-04T12:21:24.168Z,27.23
2018-06-04T12:22:24.052Z,27.06
2018-06-04T12:23:24.104Z,27.10
2018-06-04T12:24:24.165Z,26.90
2018-06-04T12:25:24.176Z,26.72
2018-06-04T12:26:24.103Z,26.56
2018-06-04T12:27:24.070Z,26.58
2018-06-04T12:28:24.120Z,26.52
2018-06-04T12:29:24.069Z,26.38
2018-06-04T12:30:24.070Z,26.32
2018-06-04T12:31:24.109Z,26.30
2018-06-04T12:32:24.127Z,26.36
2018-06-04T12:33:24.089Z,26.33
2018-06-04T12:34:24.131Z,26.22
2018-06-04T12:35:24.115Z,26.19
2018-06-04T12:36:24.056Z,26.08
2018-06-04T12:37:24.178Z,26.03
2018-06-04T12:38:24.116Z,26.07
2018-06-04T12:39:24.160Z,26.34
2018-06-04T12:40:24.179Z,26.58
2018-06-04T12:41:24.116Z,26.62
2018-06-04T12:42:24.198Z,26.84
2018-06-04T12:43:24.082Z,27.08
2018-06-04T12:44:24.194Z,27.25
2018-06-04T12:45:24.083Z,27.51
2018-06-04T12:46:24.081Z,27.73
2018-06-04T12:47:24.099Z,27.82
2018-06-04T12:48:24.085Z,27.84
2018-06-04T12:49:24.160Z,27.93
2018-06-04T12:50:24.101Z,28.18
2018-06-04T12:51:24.133Z,28.50
2018-06-04T12:52:24.132Z,28.61
2018-06-04T12:53:24.200Z,28.40